createdAt,value
2022-10-30T00:00:09.468Z,6.80
2022-10-30T00:02:39.088Z,6.47
2022-10-30T00:05:07.047Z,7.55
2022-10-30T00:07:34.629Z,6.78
2022-10-30T00:10:01.908Z,6.97
2022-10-30T00:12:29.046Z,7.43
2022-10-30T00:14:56.098Z,6.63
2022-10-30T00:17:23.394Z,6.45
2022-10-30T00:19:50.530Z,6.13
2022-10-30T00:22:17.723Z,6.20
2022-10-30T00:24:45.018Z,5.82
2022-10-30T00:27:12.095Z,6.40
2022-10-30T00:29:39.189Z,5.78
2022-10-30T00:32:06.244Z,6.13
2022-10-30T00:34:33.260Z,5.63
2022-10-30T00:37:00.239Z,6.25
2022-10-30T00:39:27.291Z,5.10
2022-10-30T00:41:54.202Z,5.38
2022-10-30T00:44:47.653Z,4.90
2022-10-30T00:47:26.777Z,5.90
2022-10-30T00:50:00.543Z,5.07
2022-10-30T00:52:32.021Z,5.25
2022-10-30T00:55:04.246Z,5.00
2022-10-30T00:57:32.237Z,4.68
2022-10-30T01:00:01.469Z,5.25
2022-10-30T01:02:28.733Z,5.57
2022-10-30T01:04:56.381Z,5.00
2022-10-30T01:07:23.973Z,5.38
2022-10-30T01:09:51.202Z,6.93
2022-10-30T01:12:18.643Z,6.97
2022-10-30T01:14:52.201Z,4.97
2022-10-30T01:17:34.612Z,5.03
2022-10-30T01:20:24.755Z,5.03
2022-10-30T01:23:04.393Z,4.85
2022-10-30T01:26:09.682Z,4.75
2022-10-30T01:28:55.377Z,4.68
2022-10-30T01:31:58.854Z,4.82
2022-10-30T01:34:51.618Z,5.15
2022-10-30T01:37:28.843Z,5.40
2022-10-30T01:39:55.890Z,4.68
2022-10-30T01:42:44.289Z,4.88
2022-10-30T01:45:35.777Z,4.47
2022-10-30T01:48:26.591Z,3.83
2022-10-30T01:51:30.666Z,4.50
2022-10-30T01:54:22.314Z,4.30
2022-10-30T01:56:58.381Z,4.53
2022-10-30T01:59:44.376Z,4.63
2022-10-30T02:04:40.324Z,4.72
2022-10-30T02:07:07.942Z,4.72
2022-10-30T02:09:41.825Z,3.88
2022-10-30T02:12:10.169Z,4.35
2022-10-30T02:14:45.469Z,4.75
2022-10-30T02:17:13.610Z,4.45
2022-10-30T02:19:42.910Z,4.07
2022-10-30T02:22:12.528Z,3.92
2022-10-30T02:24:41.284Z,4.38
2022-10-30T02:27:08.440Z,4.70
2022-10-30T02:29:35.683Z,4.50
2022-10-30T02:32:02.898Z,4.20
2022-10-30T02:34:30.541Z,4.28
2022-10-30T02:36:58.231Z,4.22
2022-10-30T02:39:25.332Z,4.10
2022-10-30T02:41:52.357Z,3.88
2022-10-30T02:44:19.516Z,3.80
2022-10-30T02:46:47.838Z,3.72
2022-10-30T02:49:14.921Z,3.88
2022-10-30T02:51:41.974Z,4.22
2022-10-30T02:54:09.121Z,4.57
2022-10-30T02:56:36.296Z,5.18
2022-10-30T02:59:03.546Z,4.05
2022-10-30T03:01:32.889Z,4.32
2022-10-30T03:04:00.434Z,4.28
2022-10-30T03:06:27.466Z,4.63
2022-10-30T03:08:54.448Z,4.40
2022-10-30T03:11:22.602Z,4.32
2022-10-30T03:13:50.423Z,4.30
2022-10-30T03:16:31.097Z,4.50
2022-10-30T03:18:58.533Z,4.15
2022-10-30T03:21:27.716Z,4.30
2022-10-30T03:23:56.317Z,4.63
2022-10-30T03:26:23.868Z,3.97
2022-10-30T03:29:06.367Z,4.45
2022-10-30T03:31:33.986Z,4.50
2022-10-30T03:34:14.643Z,4.07
2022-10-30T03:36:42.162Z,4.63
2022-10-30T03:39:09.303Z,4.32
2022-10-30T03:41:36.980Z,4.60
2022-10-30T03:44:04.033Z,4.35
2022-10-30T03:46:31.665Z,4.10
2022-10-30T03:49:14.026Z,3.67
2022-10-30T03:51:41.020Z,4.82
2022-10-30T03:54:08.030Z,3.53
2022-10-30T03:56:35.267Z,4.45
2022-10-30T03:59:04.539Z,4.38
2022-10-30T04:01:35.675Z,4.00
2022-10-30T04:04:02.667Z,4.13
2022-10-30T04:06:29.841Z,4.05
2022-10-30T04:08:56.914Z,3.95
2022-10-30T04:11:24.952Z,4.00
2022-10-30T04:13:51.983Z,3.88
2022-10-30T04:16:18.982Z,3.95
2022-10-30T04:18:46.063Z,3.45
2022-10-30T04:21:13.045Z,3.50
2022-10-30T04:23:40.348Z,3.90
2022-10-30T04:26:09.645Z,4.63
2022-10-30T04:28:40.055Z,3.50
2022-10-30T04:31:07.919Z,2.95
2022-10-30T04:33:34.980Z,3.50
2022-10-30T04:36:02.290Z,3.03
2022-10-30T04:38:31.653Z,3.63
2022-10-30T04:40:59.122Z,3.40
2022-10-30T04:43:40.774Z,4.00
2022-10-30T04:46:08.664Z,3.80
2022-10-30T04:48:37.381Z,2.92
2022-10-30T04:51:05.136Z,3.38
2022-10-30T04:53:32.110Z,3.67
2022-10-30T04:56:06.081Z,2.83
2022-10-30T04:58:33.266Z,3.30
2022-10-30T05:01:05.556Z,2.42
2022-10-30T05:03:33.834Z,2.85
2022-10-30T05:06:08.584Z,2.92
2022-10-30T05:08:35.770Z,3.00
2022-10-30T05:11:11.822Z,3.08
2022-10-30T05:13:38.779Z,3.53
2022-10-30T05:16:06.284Z,3.38
2022-10-30T05:18:34.314Z,2.80
2022-10-30T05:21:02.448Z,3.10
2022-10-30T05:23:29.641Z,3.22
2022-10-30T05:25:56.967Z,3.33
2022-10-30T05:28:24.092Z,3.03
2022-10-30T05:30:56.317Z,2.97
2022-10-30T05:33:44.827Z,3.13
2022-10-30T05:36:14.627Z,2.72
2022-10-30T05:38:43.667Z,2.63
2022-10-30T05:41:21.006Z,2.42
2022-10-30T05:43:48.172Z,2.60
2022-10-30T05:46:16.218Z,2.25
2022-10-30T05:48:43.242Z,2.17
2022-10-30T05:51:10.358Z,2.10
2022-10-30T05:53:40.747Z,1.83
2022-10-30T05:56:08.793Z,2.53
2022-10-30T05:58:36.609Z,1.88
2022-10-30T06:01:08.609Z,2.42
2022-10-30T06:03:41.898Z,1.98
2022-10-30T06:06:08.861Z,2.33
2022-10-30T06:08:36.205Z,1.92
2022-10-30T06:11:15.306Z,2.08
2022-10-30T06:13:44.922Z,1.83
2022-10-30T06:16:13.105Z,2.03
2022-10-30T06:19:17.349Z,2.55
2022-10-30T06:21:47.419Z,2.13
2022-10-30T06:24:37.780Z,1.98
2022-10-30T06:27:25.035Z,1.50
2022-10-30T06:29:55.022Z,1.80
2022-10-30T06:32:22.652Z,1.90
2022-10-30T06:34:50.251Z,1.48
2022-10-30T06:37:18.608Z,1.52
2022-10-30T06:39:46.657Z,1.90
2022-10-30T06:42:29.987Z,1.90
2022-10-30T06:45:12.811Z,1.63
2022-10-30T06:47:40.653Z,1.45
2022-10-30T06:50:13.608Z,1.70
2022-10-30T06:52:41.267Z,1.52
2022-10-30T06:55:09.411Z,1.90
2022-10-30T06:58:05.308Z,1.25
2022-10-30T07:00:54.262Z,1.52
2022-10-30T07:03:37.025Z,1.75
2022-10-30T07:06:04.874Z,1.70
2022-10-30T07:08:33.424Z,1.70
2022-10-30T07:11:01.029Z,1.73
2022-10-30T07:14:01.129Z,1.65
2022-10-30T07:16:37.955Z,1.45
2022-10-30T07:19:05.390Z,1.85
2022-10-30T07:21:34.254Z,1.65
2022-10-30T07:24:08.498Z,2.20
2022-10-30T07:26:45.131Z,1.52
2022-10-30T07:29:37.920Z,1.38
2022-10-30T07:35:13.349Z,1.20
2022-10-30T07:38:12.354Z,1.27
2022-10-30T07:40:55.249Z,1.52
2022-10-30T07:43:41.207Z,1.30
2022-10-30T07:46:32.754Z,1.40
2022-10-30T07:49:20.198Z,1.20
2022-10-30T07:51:54.804Z,1.30
2022-10-30T07:54:22.572Z,1.13
2022-10-30T07:56:53.827Z,1.08
2022-10-30T07:59:41.092Z,1.50
2022-10-30T08:02:14.673Z,1.27
2022-10-30T08:05:00.390Z,1.45
2022-10-30T08:07:41.460Z,1.20
2022-10-30T08:10:09.486Z,1.10
2022-10-30T08:12:37.687Z,1.65
2022-10-30T08:15:05.737Z,1.48
2022-10-30T08:17:33.253Z,1.30
2022-10-30T08:20:00.385Z,1.30
2022-10-30T08:22:27.905Z,1.20
2022-10-30T08:25:10.372Z,1.70
2022-10-30T08:27:49.341Z,1.58
2022-10-30T08:30:16.634Z,1.55
2022-10-30T08:32:44.252Z,1.30
2022-10-30T08:35:57.332Z,1.30
2022-10-30T08:38:28.165Z,1.73
2022-10-30T08:41:07.666Z,1.67
2022-10-30T08:43:41.373Z,1.58
2022-10-30T08:46:08.624Z,1.38
2022-10-30T08:48:36.112Z,1.90
2022-10-30T08:51:04.260Z,1.58
2022-10-30T08:53:36.570Z,1.15
2022-10-30T08:56:09.398Z,1.35
2022-10-30T08:58:58.859Z,2.17
2022-10-30T09:01:26.238Z,1.80
2022-10-30T09:04:15.155Z,1.77
2022-10-30T09:07:02.355Z,1.20
2022-10-30T09:09:44.292Z,1.40
2022-10-30T09:12:12.279Z,1.10
2022-10-30T09:14:45.222Z,1.30
2022-10-30T09:17:15.168Z,1.30
2022-10-30T09:19:45.437Z,1.20
2022-10-30T09:22:18.248Z,1.30
2022-10-30T09:24:45.802Z,1.65
2022-10-30T09:27:33.577Z,1.23
2022-10-30T09:30:07.955Z,1.08
2022-10-30T09:32:43.209Z,1.27
2022-10-30T09:35:27.170Z,1.67
2022-10-30T09:37:55.005Z,1.50
2022-10-30T09:40:50.231Z,1.50
2022-10-30T09:43:37.032Z,1.52
2022-10-30T09:46:25.649Z,1.17
2022-10-30T09:49:47.547Z,1.45
2022-10-30T09:52:29.295Z,1.05
2022-10-30T09:55:25.585Z,1.33
2022-10-30T09:57:56.119Z,1.38
2022-10-30T10:00:47.182Z,1.52
2022-10-30T10:03:49.383Z,2.28
2022-10-30T10:07:09.133Z,1.77
2022-10-30T10:10:01.165Z,1.00
2022-10-30T10:12:50.052Z,1.45
2022-10-30T10:15:25.678Z,1.50
2022-10-30T10:17:53.516Z,1.23
2022-10-30T10:20:32.307Z,1.30
2022-10-30T10:23:10.115Z,1.60
2022-10-30T10:25:41.694Z,1.13
2022-10-30T10:28:26.974Z,1.58
2022-10-30T10:31:25.372Z,1.33
2022-10-30T10:34:04.753Z,1.75
2022-10-30T10:37:16.964Z,1.25
2022-10-30T10:40:10.720Z,1.50
2022-10-30T10:42:58.462Z,1.38
2022-10-30T10:45:41.591Z,1.60
2022-10-30T10:48:11.737Z,1.17
2022-10-30T10:51:04.944Z,1.75
2022-10-30T10:53:49.402Z,1.15
2022-10-30T10:56:17.671Z,1.05
2022-10-30T10:58:54.389Z,1.98
2022-10-30T11:01:30.411Z,1.65
2022-10-30T11:04:17.021Z,1.50
2022-10-30T11:06:50.538Z,1.08
2022-10-30T11:09:23.231Z,1.60
2022-10-30T11:11:55.169Z,1.25
2022-10-30T11:14:29.979Z,2.78
2022-10-30T11:17:14.021Z,1.40
2022-10-30T11:19:41.519Z,2.40
2022-10-30T11:22:40.543Z,1.50
2022-10-30T11:25:25.335Z,1.48
2022-10-30T11:27:58.108Z,1.48
2022-10-30T11:30:28.743Z,2.53
2022-10-30T11:33:00.438Z,1.92
2022-10-30T11:35:27.836Z,1.90
2022-10-30T11:38:19.491Z,1.88
2022-10-30T11:40:53.057Z,2.00
2022-10-30T11:43:23.840Z,2.00
2022-10-30T11:45:52.354Z,0.93
2022-10-30T11:48:34.495Z,1.70
2022-10-30T11:51:04.108Z,1.25
2022-10-30T11:53:43.018Z,1.65
2022-10-30T11:56:19.096Z,1.50
2022-10-30T11:59:03.465Z,1.20
2022-10-30T12:01:39.469Z,1.42
2022-10-30T12:04:38.907Z,1.38
2022-10-30T12:07:16.536Z,1.60
2022-10-30T12:09:50.097Z,1.10
2022-10-30T12:12:39.960Z,1.50
2022-10-30T12:15:21.840Z,1.40
2022-10-30T12:17:54.560Z,0.90
2022-10-30T12:20:22.130Z,0.98
2022-10-30T12:22:50.098Z,1.05
2022-10-30T12:25:31.118Z,1.80
2022-10-30T12:28:07.342Z,1.17
2022-10-30T12:30:46.913Z,1.10
2022-10-30T12:33:43.807Z,1.13
2022-10-30T12:36:26.978Z,1.92
2022-10-30T12:39:18.406Z,1.08
2022-10-30T12:42:11.688Z,1.48
2022-10-30T12:44:45.471Z,1.35
2022-10-30T12:47:28.269Z,1.88
2022-10-30T12:52:47.583Z,1.75
2022-10-30T12:55:43.715Z,1.98
2022-10-30T12:58:47.835Z,1.70
2022-10-30T13:01:28.214Z,1.70
2022-10-30T13:04:18.160Z,1.70
2022-10-30T13:07:22.765Z,1.38
2022-10-30T13:12:57.869Z,1.88
2022-10-30T13:15:31.445Z,1.48
2022-10-30T13:18:01.234Z,1.40
2022-10-30T13:20:31.645Z,1.75
2022-10-30T13:23:11.576Z,1.67
2022-10-30T13:26:03.714Z,1.98
2022-10-30T13:28:42.500Z,2.05
2022-10-30T13:31:40.606Z,2.35
2022-10-30T13:34:35.263Z,2.10
2022-10-30T13:37:28.024Z,1.70
2022-10-30T13:40:26.677Z,2.15
2022-10-30T13:43:24.448Z,2.55
2022-10-30T13:46:03.670Z,2.15
2022-10-30T13:49:00.780Z,2.05
2022-10-30T13:51:43.949Z,1.80
2022-10-30T13:54:36.017Z,2.40
2022-10-30T13:57:19.546Z,1.73
2022-10-30T13:59:59.393Z,1.90
2022-10-30T14:02:29.544Z,1.48
2022-10-30T14:05:04.874Z,1.85
2022-10-30T14:07:49.016Z,1.58
2022-10-30T14:10:32.106Z,1.42
2022-10-30T14:12:59.331Z,1.55
2022-10-30T14:16:06.408Z,1.17
2022-10-30T14:18:59.790Z,1.50
2022-10-30T14:21:52.046Z,1.40
2022-10-30T14:27:04.823Z,1.00
2022-10-30T14:29:35.014Z,1.67
2022-10-30T14:32:12.234Z,1.30
2022-10-30T14:34:52.648Z,1.45
2022-10-30T14:37:28.326Z,0.98
2022-10-30T14:39:57.169Z,2.03
2022-10-30T14:42:38.058Z,1.45
2022-10-30T14:45:43.741Z,1.90
2022-10-30T14:48:45.192Z,1.27
2022-10-30T14:51:41.187Z,2.20
2022-10-30T14:54:36.070Z,1.48
2022-10-30T14:57:03.532Z,1.30
2022-10-30T14:59:35.536Z,1.83
2022-10-30T15:02:15.343Z,1.40
2022-10-30T15:04:45.281Z,1.48
2022-10-30T15:07:38.686Z,1.60
2022-10-30T15:10:16.587Z,1.65
2022-10-30T15:12:50.186Z,1.50
2022-10-30T15:15:19.703Z,1.73
2022-10-30T15:17:49.482Z,1.63
2022-10-30T15:20:33.191Z,1.75
2022-10-30T15:23:05.525Z,1.40
2022-10-30T15:25:37.401Z,2.17
2022-10-30T15:28:05.377Z,2.20
2022-10-30T15:30:32.528Z,1.60
2022-10-30T15:33:02.889Z,1.33
2022-10-30T15:35:31.969Z,2.15
2022-10-30T15:38:08.507Z,1.27
2022-10-30T15:40:37.836Z,2.03
2022-10-30T15:43:12.080Z,1.58
2022-10-30T15:45:45.242Z,1.42
2022-10-30T15:48:32.043Z,1.35
2022-10-30T15:51:15.684Z,2.20
2022-10-30T15:53:50.240Z,1.85
2022-10-30T15:56:25.659Z,1.73
2022-10-30T15:58:56.592Z,1.83
2022-10-30T16:01:50.468Z,1.63
2022-10-30T16:04:21.028Z,1.52
2022-10-30T16:06:56.879Z,2.00
2022-10-30T16:09:25.594Z,1.73
2022-10-30T16:11:54.667Z,1.30
2022-10-30T16:14:27.464Z,1.52
2022-10-30T16:17:31.391Z,1.48
2022-10-30T16:20:02.547Z,1.95
2022-10-30T16:22:37.068Z,2.20
2022-10-30T16:25:28.866Z,1.87
2022-10-30T16:28:18.768Z,2.47
2022-10-30T16:30:53.872Z,2.17
2022-10-30T16:33:26.442Z,2.13
2022-10-30T16:35:55.950Z,2.03
2022-10-30T16:38:30.498Z,2.03
2022-10-30T16:41:00.725Z,3.55
2022-10-30T16:43:36.844Z,2.58
2022-10-30T16:46:14.575Z,2.35
2022-10-30T16:48:54.353Z,2.30
2022-10-30T16:51:21.775Z,2.88
2022-10-30T16:53:51.177Z,2.50
2022-10-30T16:56:36.745Z,2.50
2022-10-30T16:59:13.951Z,2.33
2022-10-30T17:01:41.390Z,2.80
2022-10-30T17:04:16.841Z,2.20
2022-10-30T17:06:45.601Z,2.85
2022-10-30T17:09:26.343Z,2.47
2022-10-30T17:12:10.132Z,2.20
2022-10-30T17:14:54.939Z,1.75
2022-10-30T17:17:32.583Z,1.67
2022-10-30T17:20:07.993Z,1.98
2022-10-30T17:26:34.831Z,1.88
2022-10-30T17:29:02.075Z,1.65
2022-10-30T17:31:58.795Z,2.22
2022-10-30T17:34:26.170Z,2.00
2022-10-30T17:36:54.891Z,1.80
2022-10-30T17:39:25.724Z,1.38
2022-10-30T17:41:58.111Z,1.83
2022-10-30T17:44:28.352Z,1.80
2022-10-30T17:46:55.729Z,1.70
2022-10-30T17:49:30.485Z,1.88
2022-10-30T17:52:07.133Z,1.80
2022-10-30T17:54:41.051Z,1.20
2022-10-30T17:57:27.715Z,1.58
2022-10-30T18:00:20.388Z,1.40
2022-10-30T18:03:15.492Z,1.70
2022-10-30T18:06:18.021Z,1.45
2022-10-30T18:09:05.429Z,1.50
2022-10-30T18:11:32.516Z,2.28
2022-10-30T18:14:01.944Z,1.52
2022-10-30T18:16:52.844Z,1.80
2022-10-30T18:19:24.617Z,1.55
2022-10-30T18:22:04.594Z,1.60
2022-10-30T18:24:46.490Z,1.55
2022-10-30T18:27:14.584Z,1.80
2022-10-30T18:29:44.139Z,1.52
2022-10-30T18:32:13.747Z,1.35
2022-10-30T18:34:43.387Z,1.60
2022-10-30T18:37:14.016Z,1.50
2022-10-30T18:39:41.235Z,1.60
2022-10-30T18:42:09.585Z,1.38
2022-10-30T18:44:39.396Z,1.70
2022-10-30T18:47:11.625Z,1.70
2022-10-30T18:49:38.880Z,1.60
2022-10-30T18:52:06.583Z,1.67
2022-10-30T18:54:34.064Z,1.15
2022-10-30T18:57:05.883Z,2.50
2022-10-30T18:59:46.205Z,1.20
2022-10-30T19:02:38.303Z,1.60
2022-10-30T19:05:35.307Z,1.42
2022-10-30T19:08:26.761Z,1.60
2022-10-30T19:11:01.834Z,2.17
2022-10-30T19:13:32.846Z,1.75
2022-10-30T19:16:03.047Z,1.60
2022-10-30T19:18:46.611Z,1.85
2022-10-30T19:21:40.880Z,1.50
2022-10-30T19:28:28.608Z,1.73
2022-10-30T19:31:54.970Z,1.48
2022-10-30T19:35:32.377Z,2.03
2022-10-30T19:41:46.111Z,2.10
2022-10-30T19:44:27.902Z,1.98
2022-10-30T19:47:06.585Z,1.20
2022-10-30T20:46:11.361Z,2.30
2022-10-30T20:49:24.805Z,1.85
2022-10-30T20:52:14.716Z,1.58
2022-10-30T20:54:57.020Z,1.35
2022-10-30T20:57:29.461Z,1.67
2022-10-30T21:00:30.378Z,1.48
2022-10-30T21:03:05.924Z,1.83
2022-10-30T21:07:23.668Z,1.30
2022-10-30T21:09:46.518Z,1.70
2022-10-30T21:12:35.923Z,1.25
2022-10-30T21:15:55.073Z,1.70
2022-10-30T21:19:24.367Z,1.65
2022-10-30T21:22:50.086Z,1.50
2022-10-30T21:25:38.191Z,1.40
2022-10-30T21:28:31.632Z,1.88
2022-10-30T21:31:36.071Z,1.50
2022-10-30T21:37:07.678Z,1.30
2022-10-30T21:40:02.245Z,1.38
2022-10-30T21:50:41.468Z,1.73
2022-10-30T21:53:36.659Z,1.67
2022-10-30T21:56:37.550Z,1.45
2022-10-30T21:59:15.397Z,1.98
2022-10-30T22:01:54.286Z,1.40
2022-10-30T22:04:31.583Z,1.25
2022-10-30T22:07:46.269Z,1.40
2022-10-30T22:11:25.873Z,1.38
2022-10-30T22:14:06.055Z,1.30
2022-10-30T22:16:38.775Z,1.35
2022-10-30T22:19:24.283Z,1.55
2022-10-30T22:23:36.718Z,1.25
2022-10-30T23:04:13.191Z,1.60
2022-10-30T23:09:47.241Z,1.30
2022-10-30T23:12:22.144Z,1.27
2022-10-30T23:14:49.834Z,1.65
2022-10-30T23:17:17.044Z,1.30
2022-10-30T23:19:44.544Z,1.40
2022-10-30T23:22:12.021Z,1.90
2022-10-30T23:24:41.725Z,1.55
2022-10-30T23:27:09.574Z,1.50
2022-10-30T23:29:40.321Z,1.48
2022-10-30T23:32:17.942Z,1.35
2022-10-30T23:34:45.295Z,1.40
2022-10-30T23:37:21.028Z,1.52
2022-10-30T23:39:48.156Z,1.50
2022-10-30T23:42:16.652Z,1.50
2022-10-30T23:44:46.172Z,1.60
2022-10-30T23:47:42.585Z,1.80
2022-10-30T23:50:35.631Z,1.77
2022-10-30T23:53:03.926Z,1.42
2022-10-30T23:55:33.549Z,1.60
2022-10-30T23:58:01.282Z,1.25
